createdAt,value
2018-09-04T00:01:13.590Z,24.60
2018-09-04T00:03:49.593Z,25.70
2018-09-04T00:06:25.593Z,25.00
2018-09-04T00:09:01.564Z,25.17
2018-09-04T00:11:37.450Z,25.07
2018-09-04T00:14:13.233Z,29.20
2018-09-04T00:16:49.171Z,28.10
2018-09-04T00:19:24.980Z,28.97
2018-09-04T00:22:00.996Z,24.60
2018-09-04T00:24:36.804Z,26.43
2018-09-04T00:27:12.718Z,23.33
2018-09-04T00:29:48.449Z,24.20
2018-09-04T00:32:24.407Z,23.87
2018-09-04T00:35:00.256Z,27.33
2018-09-04T00:37:36.107Z,23.80
2018-09-04T00:40:11.969Z,24.33
2018-09-04T00:42:47.940Z,27.40
2018-09-04T00:45:23.868Z,26.80
2018-09-04T00:47:59.842Z,27.60
2018-09-04T00:50:35.633Z,28.10
2018-09-04T00:53:11.658Z,26.43
2018-09-04T00:55:47.497Z,25.63
2018-09-04T00:58:23.374Z,25.70
2018-09-04T01:00:59.415Z,23.40
2018-09-04T01:03:35.567Z,25.63
2018-09-04T01:06:11.578Z,23.90
2018-09-04T01:08:47.375Z,24.43
2018-09-04T01:11:23.300Z,23.47
2018-09-04T01:13:59.367Z,23.53
2018-09-04T01:16:35.542Z,23.93
2018-09-04T01:19:11.439Z,20.73
2018-09-04T01:21:47.308Z,21.53
2018-09-04T01:24:23.339Z,20.63
2018-09-04T01:26:59.211Z,23.07
2018-09-04T01:29:35.204Z,24.03
2018-09-04T01:32:11.366Z,21.33
2018-09-04T01:34:47.216Z,22.53
2018-09-04T01:37:23.293Z,22.23
2018-09-04T01:39:59.149Z,21.70
2018-09-04T01:42:34.947Z,21.27
2018-09-04T01:45:10.882Z,22.47
2018-09-04T01:47:46.872Z,22.47
2018-09-04T01:50:22.886Z,18.97
2018-09-04T01:52:58.837Z,23.70
2018-09-04T01:55:34.885Z,24.33
2018-09-04T01:58:10.780Z,23.70
2018-09-04T02:00:46.626Z,20.67
2018-09-04T02:03:22.605Z,24.23
2018-09-04T02:05:58.507Z,25.10
2018-09-04T02:08:34.456Z,24.73
2018-09-04T02:11:10.456Z,28.57
2018-09-04T02:13:46.405Z,27.97
2018-09-04T02:16:22.429Z,28.77
2018-09-04T02:18:58.318Z,29.67
2018-09-04T02:21:34.196Z,25.80
2018-09-04T02:24:40.661Z,26.40
2018-09-04T02:27:16.583Z,25.83
2018-09-04T02:29:52.571Z,22.73
2018-09-04T02:32:28.430Z,25.80
2018-09-04T02:35:04.380Z,28.93
2018-09-04T02:37:40.372Z,26.43
2018-09-04T02:40:16.344Z,22.43
2018-09-04T02:42:52.220Z,23.73
2018-09-04T02:45:28.024Z,23.27
2018-09-04T02:48:03.824Z,24.23
2018-09-04T02:50:39.539Z,23.50
2018-09-04T02:53:15.539Z,22.83
2018-09-04T02:55:51.465Z,22.70
2018-09-04T02:58:27.451Z,20.67
2018-09-04T03:01:03.264Z,23.70
2018-09-04T03:03:39.162Z,23.53
2018-09-04T03:06:15.131Z,23.07
2018-09-04T03:08:51.049Z,26.23
2018-09-04T03:11:26.970Z,25.80
2018-09-04T03:14:03.056Z,26.37
2018-09-04T03:16:39.072Z,31.20
2018-09-04T03:19:15.059Z,28.27
2018-09-04T03:21:50.910Z,26.43
2018-09-04T03:24:26.709Z,26.03
2018-09-04T03:27:02.492Z,25.33
2018-09-04T03:29:38.329Z,25.87
2018-09-04T03:32:14.235Z,25.60
2018-09-04T03:34:50.195Z,25.53
2018-09-04T03:37:26.106Z,25.27
2018-09-04T03:40:01.872Z,29.13
2018-09-04T03:42:37.860Z,23.77
2018-09-04T03:45:13.711Z,26.13
2018-09-04T03:47:49.528Z,25.90
2018-09-04T03:50:25.517Z,26.73
2018-09-04T03:53:01.377Z,25.23
2018-09-04T03:55:37.339Z,25.87
2018-09-04T03:58:13.407Z,26.37
2018-09-04T04:00:49.334Z,27.53
2018-09-04T04:03:25.338Z,28.80
2018-09-04T04:06:01.153Z,25.93
2018-09-04T04:08:37.065Z,26.13
2018-09-04T04:11:12.887Z,24.77
2018-09-04T04:13:48.871Z,28.40
2018-09-04T04:16:24.736Z,28.70
2018-09-04T04:19:00.692Z,26.70
2018-09-04T04:21:36.387Z,28.83
2018-09-04T04:24:12.140Z,27.00
2018-09-04T04:26:48.011Z,27.30
2018-09-04T04:29:24.139Z,26.03
2018-09-04T04:31:59.944Z,26.83
2018-09-04T04:34:35.953Z,25.67
2018-09-04T04:37:11.813Z,26.10
2018-09-04T04:39:47.546Z,25.77
2018-09-04T04:42:23.541Z,26.17
2018-09-04T04:44:59.535Z,26.87
2018-09-04T04:47:40.463Z,24.70
2018-09-04T04:50:16.752Z,24.97
2018-09-04T04:52:52.683Z,25.37
2018-09-04T04:55:28.531Z,25.93
2018-09-04T04:58:04.485Z,25.67
2018-09-04T05:00:40.428Z,25.80
2018-09-04T05:03:16.395Z,27.03
2018-09-04T05:05:52.361Z,26.17
2018-09-04T05:08:28.346Z,23.93
2018-09-04T05:11:04.414Z,25.33
2018-09-04T05:13:40.216Z,24.37
2018-09-04T05:16:16.250Z,24.07
2018-09-04T05:18:52.200Z,24.63
2018-09-04T05:21:28.180Z,23.17
2018-09-04T05:24:04.188Z,26.03
2018-09-04T05:26:40.181Z,26.27
2018-09-04T05:29:15.986Z,25.70
2018-09-04T05:32:03.096Z,24.73
2018-09-04T05:34:38.980Z,27.97
2018-09-04T05:37:14.910Z,29.00
2018-09-04T05:39:50.915Z,27.20
2018-09-04T05:42:30.663Z,27.90
2018-09-04T05:45:07.864Z,25.43
2018-09-04T05:47:43.845Z,27.40
2018-09-04T05:50:19.852Z,26.90
2018-09-04T05:52:55.659Z,28.47
2018-09-04T05:55:31.483Z,23.57
2018-09-04T05:58:07.574Z,24.47
2018-09-04T06:00:48.173Z,27.30
2018-09-04T06:03:24.146Z,29.50
2018-09-04T06:05:59.905Z,31.40
2018-09-04T06:08:35.792Z,32.73
2018-09-04T06:11:11.696Z,31.97
2018-09-04T06:13:47.623Z,29.47
2018-09-04T06:16:23.531Z,28.37
2018-09-04T06:18:59.343Z,27.87
2018-09-04T06:21:35.331Z,27.27
2018-09-04T06:24:11.238Z,30.23
2018-09-04T06:26:47.096Z,31.37
2018-09-04T06:29:23.182Z,31.17
2018-09-04T06:31:59.179Z,28.80
2018-09-04T06:34:35.041Z,30.43
2018-09-04T06:37:11.004Z,31.20
2018-09-04T06:39:47.167Z,30.93
2018-09-04T06:42:23.176Z,29.27
2018-09-04T06:44:59.230Z,29.77
2018-09-04T06:47:35.164Z,29.97
2018-09-04T06:50:11.039Z,31.27
2018-09-04T06:52:46.912Z,32.17
2018-09-04T06:55:22.829Z,31.50
2018-09-04T06:57:58.736Z,31.60
2018-09-04T07:00:34.509Z,33.60
2018-09-04T07:03:10.497Z,31.00
2018-09-04T07:05:46.503Z,34.20
2018-09-04T07:08:22.399Z,28.40
2018-09-04T07:10:58.348Z,32.57
2018-09-04T07:13:34.177Z,39.50
2018-09-04T07:16:10.191Z,37.37
2018-09-04T07:18:46.156Z,36.87
2018-09-04T07:21:22.070Z,39.83
2018-09-04T07:23:57.898Z,36.47
2018-09-04T07:26:33.797Z,41.57
2018-09-04T07:29:09.953Z,42.87
2018-09-04T07:31:45.975Z,41.23
2018-09-04T07:34:21.987Z,43.40
2018-09-04T07:36:58.011Z,45.73
2018-09-04T07:39:34.037Z,50.27
2018-09-04T07:42:10.032Z,48.87
2018-09-04T07:44:46.109Z,49.97
2018-09-04T07:47:22.099Z,47.37
2018-09-04T07:49:58.064Z,49.97
2018-09-04T07:52:33.980Z,46.63
2018-09-04T07:55:10.283Z,48.53
2018-09-04T07:57:46.380Z,47.60
2018-09-04T08:00:22.363Z,45.30
2018-09-04T08:02:58.332Z,48.90
2018-09-04T08:05:34.180Z,42.07
2018-09-04T08:08:10.153Z,50.40
2018-09-04T08:10:46.184Z,48.03
2018-09-04T08:13:22.132Z,48.50
2018-09-04T08:15:58.185Z,49.53
2018-09-04T08:18:34.162Z,48.33
2018-09-04T08:21:10.209Z,47.80
2018-09-04T08:23:46.231Z,50.83
2018-09-04T08:26:22.095Z,47.80
2018-09-04T08:28:57.916Z,48.43
2018-09-04T08:31:33.957Z,50.10
2018-09-04T08:34:09.896Z,47.20
2018-09-04T08:36:45.769Z,46.13
2018-09-04T08:39:21.855Z,47.10
2018-09-04T08:41:57.867Z,46.33
2018-09-04T08:44:33.700Z,45.73
2018-09-04T08:47:09.782Z,47.10
2018-09-04T08:49:45.821Z,43.53
2018-09-04T08:52:21.759Z,47.23
2018-09-04T08:54:57.753Z,45.97
2018-09-04T08:57:33.858Z,44.90
2018-09-04T09:00:09.790Z,46.13
2018-09-04T09:02:45.835Z,47.83
2018-09-04T09:05:21.736Z,43.83
2018-09-04T09:07:58.527Z,44.77
2018-09-04T09:10:34.649Z,47.17
2018-09-04T09:13:10.633Z,43.47
2018-09-04T09:15:46.464Z,43.93
2018-09-04T09:18:22.536Z,42.73
2018-09-04T09:20:58.477Z,42.90
2018-09-04T09:23:34.432Z,41.97
2018-09-04T09:26:10.428Z,42.03
2018-09-04T09:28:46.372Z,40.50
2018-09-04T09:31:22.228Z,43.00
2018-09-04T09:33:58.052Z,41.10
2018-09-04T09:36:34.289Z,39.93
2018-09-04T09:39:11.241Z,40.67
2018-09-04T09:41:47.331Z,38.90
2018-09-04T09:44:23.415Z,39.60
2018-09-04T09:47:03.217Z,37.07
2018-09-04T09:49:39.171Z,36.30
2018-09-04T09:52:15.115Z,37.83
2018-09-04T09:54:51.161Z,36.23
2018-09-04T09:57:27.302Z,36.30
2018-09-04T10:00:03.529Z,36.77
2018-09-04T10:02:44.654Z,36.57
2018-09-04T10:05:20.611Z,35.97
2018-09-04T10:07:56.766Z,34.50
2018-09-04T10:10:32.667Z,35.77
2018-09-04T10:13:08.566Z,35.37
2018-09-04T10:15:44.489Z,32.70
2018-09-04T10:18:20.311Z,34.90
2018-09-04T10:20:56.157Z,32.63
2018-09-04T10:23:32.649Z,36.33
2018-09-04T10:26:08.701Z,33.00
2018-09-04T10:28:44.492Z,35.53
2018-09-04T10:31:20.542Z,35.10
2018-09-04T10:33:56.309Z,37.37
2018-09-04T10:36:32.341Z,36.33
2018-09-04T10:39:14.143Z,36.37
2018-09-04T10:41:50.302Z,35.00
2018-09-04T10:44:30.568Z,33.83
2018-09-04T10:47:06.603Z,34.80
2018-09-04T10:49:42.691Z,34.90
2018-09-04T10:52:18.643Z,32.73
2018-09-04T10:54:54.388Z,30.23
2018-09-04T10:57:30.528Z,30.73
2018-09-04T11:00:07.297Z,29.03
2018-09-04T11:02:43.217Z,33.80
2018-09-04T11:05:19.432Z,31.83
2018-09-04T11:07:55.472Z,30.70
2018-09-04T11:10:31.500Z,26.27
2018-09-04T11:13:08.136Z,27.60
2018-09-04T11:15:44.103Z,26.50
2018-09-04T11:18:20.549Z,26.83
2018-09-04T11:20:56.369Z,24.17
2018-09-04T11:23:32.453Z,25.17
2018-09-04T11:26:14.525Z,26.17
2018-09-04T11:28:54.972Z,21.73
2018-09-04T11:31:30.766Z,23.20
2018-09-04T11:34:06.897Z,21.87
2018-09-04T11:36:42.810Z,25.80
2018-09-04T11:39:18.652Z,20.03
2018-09-04T11:41:54.530Z,19.13
2018-09-04T11:44:30.530Z,22.23
2018-09-04T11:47:06.537Z,20.80
2018-09-04T11:49:43.163Z,20.23
2018-09-04T11:52:19.158Z,22.53
2018-09-04T11:54:55.309Z,18.07
2018-09-04T11:57:31.123Z,18.87
2018-09-04T12:00:09.580Z,20.30
2018-09-04T12:02:46.100Z,20.93
2018-09-04T12:05:21.996Z,19.53
2018-09-04T12:07:57.880Z,19.50
2018-09-04T12:10:33.866Z,18.47
2018-09-04T12:13:09.888Z,21.43
2018-09-04T12:15:45.713Z,19.87
2018-09-04T12:18:21.568Z,20.77
2018-09-04T12:20:59.152Z,18.80
2018-09-04T12:23:34.960Z,18.30
2018-09-04T12:26:11.825Z,17.57
2018-09-04T12:28:47.669Z,16.47
2018-09-04T12:31:23.622Z,17.20
2018-09-04T12:33:59.668Z,17.27
2018-09-04T12:36:35.770Z,18.03
2018-09-04T12:39:11.625Z,16.97
2018-09-04T12:41:50.417Z,18.63
2018-09-04T12:44:26.378Z,15.93
2018-09-04T12:47:02.373Z,16.07
2018-09-04T12:49:38.403Z,16.80
2018-09-04T12:52:14.234Z,17.37
2018-09-04T12:54:50.261Z,21.10
2018-09-04T12:57:26.129Z,14.70
2018-09-04T13:00:02.113Z,14.47
2018-09-04T13:02:38.100Z,14.07
2018-09-04T13:05:13.952Z,13.43
2018-09-04T13:07:49.757Z,14.03
2018-09-04T13:10:25.593Z,12.10
2018-09-04T13:13:01.533Z,12.87
2018-09-04T13:15:37.957Z,13.00
2018-09-04T13:18:13.762Z,15.93
2018-09-04T13:20:49.893Z,12.27
2018-09-04T13:23:25.768Z,11.53
2018-09-04T13:26:01.929Z,12.30
2018-09-04T13:28:37.936Z,13.57
2018-09-04T13:31:13.892Z,13.07
2018-09-04T13:33:49.782Z,13.03
2018-09-04T13:36:25.923Z,13.33
2018-09-04T13:39:01.913Z,11.40
2018-09-04T13:41:37.889Z,11.60
2018-09-04T13:44:13.987Z,11.03
2018-09-04T13:46:49.835Z,12.47
2018-09-04T13:49:25.746Z,11.07
2018-09-04T13:52:01.778Z,11.27
2018-09-04T13:54:37.606Z,10.87
2018-09-04T13:57:13.379Z,11.13
2018-09-04T13:59:49.357Z,17.07
2018-09-04T14:02:25.305Z,11.33
2018-09-04T14:05:01.189Z,12.10
2018-09-04T14:07:37.157Z,12.40
2018-09-04T14:10:13.166Z,11.80
2018-09-04T14:12:49.077Z,12.17
2018-09-04T14:15:25.294Z,12.27
2018-09-04T14:18:01.433Z,11.20
2018-09-04T14:20:37.518Z,12.03
2018-09-04T14:23:13.502Z,12.77
2018-09-04T14:25:49.512Z,12.53
2018-09-04T14:28:41.384Z,12.90
2018-09-04T14:31:01.667Z,12.73
2018-09-04T14:33:37.681Z,13.47
2018-09-04T14:36:13.653Z,12.07
2018-09-04T14:38:49.485Z,13.07
2018-09-04T14:41:25.606Z,13.90
2018-09-04T14:44:01.301Z,15.60
2018-09-04T14:46:37.284Z,14.10
2018-09-04T14:49:13.341Z,15.17
2018-09-04T14:51:49.262Z,13.53
2018-09-04T14:54:25.163Z,13.93
2018-09-04T14:57:01.206Z,14.07
2018-09-04T14:59:37.198Z,14.77
2018-09-04T15:02:12.992Z,14.47
2018-09-04T15:05:30.338Z,13.80
2018-09-04T15:08:06.322Z,13.43
2018-09-04T15:10:42.246Z,13.60
2018-09-04T15:13:17.937Z,13.60
2018-09-04T15:15:53.988Z,13.47
2018-09-04T15:18:29.866Z,13.27
2018-09-04T15:21:05.906Z,13.33
2018-09-04T15:23:41.964Z,12.83
2018-09-04T15:26:17.922Z,12.73
2018-09-04T15:28:53.766Z,13.10
2018-09-04T15:31:29.822Z,12.57
2018-09-04T15:34:05.833Z,14.20
2018-09-04T15:36:41.621Z,13.00
2018-09-04T15:39:17.645Z,12.43
2018-09-04T15:41:53.573Z,12.40
2018-09-04T15:44:29.561Z,12.60
2018-09-04T15:47:05.557Z,12.30
2018-09-04T15:49:45.750Z,13.27
2018-09-04T15:52:21.801Z,13.17
2018-09-04T15:54:57.544Z,13.63
2018-09-04T15:57:33.297Z,12.50
2018-09-04T16:00:09.463Z,14.43
2018-09-04T16:02:45.474Z,13.10
2018-09-04T16:05:21.320Z,14.03
2018-09-04T16:07:57.314Z,13.07
2018-09-04T16:10:33.370Z,12.33
2018-09-04T16:13:09.402Z,14.20
2018-09-04T16:15:45.332Z,13.07
2018-09-04T16:18:21.464Z,15.93
2018-09-04T16:20:57.533Z,16.83
2018-09-04T16:23:33.533Z,17.60
2018-09-04T16:26:09.472Z,16.97
2018-09-04T16:28:45.448Z,16.43
2018-09-04T16:31:21.465Z,15.73
2018-09-04T16:33:57.173Z,14.53
2018-09-04T16:36:33.210Z,15.30
2018-09-04T16:39:09.010Z,13.03
2018-09-04T16:41:45.028Z,14.63
2018-09-04T16:44:20.795Z,14.93
2018-09-04T16:46:56.674Z,15.30
2018-09-04T16:49:32.565Z,13.67
2018-09-04T16:52:08.497Z,13.90
2018-09-04T16:54:44.431Z,14.97
2018-09-04T16:57:20.335Z,12.20
2018-09-04T16:59:56.317Z,12.83
2018-09-04T17:02:32.493Z,11.40
2018-09-04T17:05:08.344Z,10.33
2018-09-04T17:07:44.484Z,9.83
2018-09-04T17:10:20.254Z,9.27
2018-09-04T17:12:56.306Z,8.70
2018-09-04T17:15:32.168Z,8.03
2018-09-04T17:18:08.198Z,7.67
2018-09-04T17:20:44.120Z,7.73
2018-09-04T17:23:19.893Z,8.03
2018-09-04T17:25:55.877Z,8.10
2018-09-04T17:28:31.928Z,7.90
2018-09-04T17:31:07.842Z,7.90
2018-09-04T17:33:43.732Z,7.70
2018-09-04T17:36:19.798Z,8.03
2018-09-04T17:38:55.793Z,8.33
2018-09-04T17:41:31.818Z,7.40
2018-09-04T17:44:07.900Z,7.40
2018-09-04T17:46:43.817Z,7.60
2018-09-04T17:49:19.674Z,8.10
2018-09-04T17:51:55.617Z,7.90
2018-09-04T17:54:31.421Z,7.87
2018-09-04T17:57:07.586Z,7.90
2018-09-04T17:59:43.562Z,8.43
2018-09-04T18:02:19.561Z,9.10
2018-09-04T18:04:55.535Z,8.93
2018-09-04T18:07:31.508Z,7.90
2018-09-04T18:10:07.667Z,8.40
2018-09-04T18:12:43.602Z,7.63
2018-09-04T18:15:19.446Z,9.00
2018-09-04T18:17:55.355Z,8.33
2018-09-04T18:20:31.365Z,9.30
2018-09-04T18:23:07.221Z,9.00
2018-09-04T18:25:43.107Z,9.40
2018-09-04T18:28:19.154Z,9.03
2018-09-04T18:30:55.077Z,8.63
2018-09-04T18:33:31.017Z,9.07
2018-09-04T18:36:07.025Z,8.20
2018-09-04T18:38:42.847Z,8.90
2018-09-04T18:41:18.685Z,7.83
2018-09-04T18:43:54.534Z,8.83
2018-09-04T18:46:30.551Z,8.83
2018-09-04T18:49:06.601Z,8.40
2018-09-04T18:51:42.714Z,8.60
2018-09-04T18:54:18.745Z,9.00
2018-09-04T18:56:54.537Z,8.73
2018-09-04T18:59:30.378Z,8.53
2018-09-04T19:02:06.604Z,9.47
2018-09-04T19:04:42.576Z,10.80
2018-09-04T19:07:18.596Z,10.43
2018-09-04T19:09:54.470Z,9.50
2018-09-04T19:12:30.366Z,10.67
2018-09-04T19:15:06.548Z,10.03
2018-09-04T19:17:42.427Z,9.87
2018-09-04T19:20:18.540Z,10.87
2018-09-04T19:25:36.899Z,10.23
2018-09-04T19:28:43.516Z,11.20
2018-09-04T19:31:20.110Z,11.17
2018-09-04T19:33:56.383Z,11.07
2018-09-04T19:36:32.388Z,11.10
2018-09-04T19:39:10.020Z,11.33
2018-09-04T19:41:46.013Z,12.10
2018-09-04T19:44:21.840Z,12.27
2018-09-04T19:46:57.770Z,12.30
2018-09-04T19:49:33.850Z,11.90
2018-09-04T19:52:09.940Z,12.13
2018-09-04T19:54:45.964Z,13.67
2018-09-04T19:57:22.081Z,12.27
2018-09-04T19:59:58.201Z,12.00
2018-09-04T20:02:33.968Z,11.30
2018-09-04T20:05:10.433Z,12.77
2018-09-04T20:07:46.327Z,12.57
2018-09-04T20:10:22.309Z,11.30
2018-09-04T20:12:58.232Z,12.43
2018-09-04T20:15:34.046Z,11.90
2018-09-04T20:18:09.933Z,12.13
2018-09-04T20:20:45.987Z,13.30
2018-09-04T20:23:21.902Z,15.03
2018-09-04T20:25:57.877Z,14.03
2018-09-04T20:28:33.841Z,14.53
2018-09-04T20:31:12.712Z,14.03
2018-09-04T20:33:48.996Z,15.83
2018-09-04T20:36:24.713Z,17.83
2018-09-04T20:39:00.603Z,15.70
2018-09-04T20:41:36.677Z,15.57
2018-09-04T20:44:12.669Z,13.60
2018-09-04T20:46:48.497Z,13.63
2018-09-04T20:49:24.385Z,13.60
2018-09-04T20:52:00.479Z,13.97
2018-09-04T20:54:36.351Z,14.40
2018-09-04T20:57:30.045Z,15.03
2018-09-04T21:00:25.534Z,14.50
2018-09-04T21:03:18.285Z,14.70
2018-09-04T21:06:10.881Z,13.20
2018-09-04T21:09:58.503Z,14.63
2018-09-04T21:12:34.360Z,14.03
2018-09-04T21:15:10.270Z,13.73
2018-09-04T21:17:46.143Z,15.00
2018-09-04T21:20:25.616Z,14.80
2018-09-04T21:23:01.594Z,14.60
2018-09-04T21:25:37.458Z,14.07
2018-09-04T21:28:13.381Z,14.60
2018-09-04T21:30:49.300Z,16.33
2018-09-04T21:33:25.156Z,15.67
2018-09-04T21:36:00.961Z,16.13
2018-09-04T21:38:36.934Z,15.40
2018-09-04T21:41:12.971Z,15.67
2018-09-04T21:43:49.097Z,16.63
2018-09-04T21:46:24.914Z,15.63
2018-09-04T21:49:00.752Z,16.87
2018-09-04T21:51:36.604Z,15.67
2018-09-04T21:54:12.482Z,15.67
2018-09-04T21:56:48.317Z,16.13
2018-09-04T21:59:24.344Z,15.57
2018-09-04T22:02:00.298Z,15.10
2018-09-04T22:04:36.292Z,15.87
2018-09-04T22:07:13.054Z,15.77
2018-09-04T22:09:49.055Z,15.07
2018-09-04T22:12:25.139Z,16.37
2018-09-04T22:15:00.941Z,15.97
2018-09-04T22:17:37.913Z,15.03
2018-09-04T22:20:13.876Z,15.50
2018-09-04T22:22:49.737Z,16.27
2018-09-04T22:25:25.740Z,15.23
2018-09-04T22:28:01.544Z,16.37
2018-09-04T22:30:37.459Z,15.47
2018-09-04T22:33:13.456Z,16.30
2018-09-04T22:35:49.462Z,15.70
2018-09-04T22:38:25.269Z,15.60
2018-09-04T22:41:01.290Z,17.17
2018-09-04T22:43:37.790Z,17.57
2018-09-04T22:46:13.735Z,15.23
2018-09-04T22:48:49.537Z,17.30
2018-09-04T22:51:30.644Z,16.70
2018-09-04T22:54:07.883Z,19.97
2018-09-04T22:56:43.975Z,19.27
2018-09-04T22:59:20.051Z,24.43
2018-09-04T23:01:55.938Z,21.27
2018-09-04T23:04:31.869Z,18.97
2018-09-04T23:07:07.893Z,20.00
2018-09-04T23:09:44.117Z,19.20
2018-09-04T23:12:20.116Z,19.00
2018-09-04T23:14:56.157Z,19.43
2018-09-04T23:17:32.181Z,19.83
2018-09-04T23:20:08.280Z,18.20
2018-09-04T23:22:44.284Z,18.97
2018-09-04T23:25:20.221Z,21.23
2018-09-04T23:27:56.117Z,22.20
2018-09-04T23:30:32.031Z,21.53
2018-09-04T23:33:08.462Z,20.10
2018-09-04T23:35:44.418Z,18.67
2018-09-04T23:38:22.714Z,19.00
2018-09-04T23:40:58.626Z,19.90
2018-09-04T23:43:34.617Z,19.07
2018-09-04T23:46:10.528Z,19.90
2018-09-04T23:48:46.511Z,21.17
2018-09-04T23:51:22.444Z,20.73
2018-09-04T23:53:58.553Z,20.13
2018-09-04T23:56:34.732Z,20.70
2018-09-04T23:59:10.669Z,20.37
